sensor_id;sensor_type;location;lat;lon;timestamp;P1;durP1;ratioP1;P2;durP2;ratioP2
1785;SDS011;890;48.158;11.540;2022-11-20T00:01:20;4.20;;;3.80;;
1785;SDS011;890;48.158;11.540;2022-11-20T00:03:48;3.80;;;3.50;;
1785;SDS011;890;48.158;11.540;2022-11-20T00:06:16;4.43;;;3.80;;
1785;SDS011;890;48.158;11.540;2022-11-20T00:08:43;3.43;;;3.13;;
1785;SDS011;890;48.158;11.540;2022-11-20T00:11:14;4.03;;;3.40;;
1785;SDS011;890;48.158;11.540;2022-11-20T00:13:41;4.00;;;3.60;;
1785;SDS011;890;48.158;11.540;2022-11-20T00:16:11;3.90;;;3.60;;
1785;SDS011;890;48.158;11.540;2022-11-20T00:18:37;3.50;;;3.20;;
1785;SDS011;890;48.158;11.540;2022-11-20T00:21:07;4.80;;;3.90;;
1785;SDS011;890;48.158;11.540;2022-11-20T00:23:38;3.90;;;3.50;;
1785;SDS011;890;48.158;11.540;2022-11-20T00:26:05;3.83;;;3.53;;
1785;SDS011;890;48.158;11.540;2022-11-20T00:28:31;3.83;;;3.30;;
1785;SDS011;890;48.158;11.540;2022-11-20T00:31:04;4.30;;;3.90;;
1785;SDS011;890;48.158;11.540;2022-11-20T00:33:38;4.37;;;4.00;;
1785;SDS011;890;48.158;11.540;2022-11-20T00:36:05;4.20;;;3.80;;
1785;SDS011;890;48.158;11.540;2022-11-20T00:38:32;4.57;;;4.03;;
1785;SDS011;890;48.158;11.540;2022-11-20T00:40:59;4.17;;;3.77;;
1785;SDS011;890;48.158;11.540;2022-11-20T00:43:27;4.00;;;3.60;;
1785;SDS011;890;48.158;11.540;2022-11-20T00:45:56;4.43;;;3.70;;
1785;SDS011;890;48.158;11.540;2022-11-20T00:48:26;4.20;;;3.80;;
1785;SDS011;890;48.158;11.540;2022-11-20T00:50:52;4.57;;;4.07;;
1785;SDS011;890;48.158;11.540;2022-11-20T00:53:18;4.80;;;4.07;;
1785;SDS011;890;48.158;11.540;2022-11-20T00:55:51;4.40;;;4.00;;
1785;SDS011;890;48.158;11.540;2022-11-20T00:58:18;4.20;;;3.53;;
1785;SDS011;890;48.158;11.540;2022-11-20T01:00:43;4.10;;;3.73;;
1785;SDS011;890;48.158;11.540;2022-11-20T01:03:09;4.40;;;4.00;;
1785;SDS011;890;48.158;11.540;2022-11-20T01:05:35;5.70;;;4.77;;
1785;SDS011;890;48.158;11.540;2022-11-20T01:08:01;4.60;;;4.20;;
1785;SDS011;890;48.158;11.540;2022-11-20T01:10:26;4.33;;;3.93;;
1785;SDS011;890;48.158;11.540;2022-11-20T01:12:52;4.63;;;4.13;;
1785;SDS011;890;48.158;11.540;2022-11-20T01:15:37;5.10;;;4.33;;
1785;SDS011;890;48.158;11.540;2022-11-20T01:18:03;5.47;;;3.97;;
1785;SDS011;890;48.158;11.540;2022-11-20T01:20:28;4.00;;;3.70;;
1785;SDS011;890;48.158;11.540;2022-11-20T01:22:54;4.50;;;3.70;;
1785;SDS011;890;48.158;11.540;2022-11-20T01:25:20;4.27;;;3.67;;
1785;SDS011;890;48.158;11.540;2022-11-20T01:27:45;4.93;;;3.83;;
1785;SDS011;890;48.158;11.540;2022-11-20T01:30:11;5.37;;;4.07;;
1785;SDS011;890;48.158;11.540;2022-11-20T01:32:38;4.40;;;4.00;;
1785;SDS011;890;48.158;11.540;2022-11-20T01:35:04;5.47;;;3.90;;
1785;SDS011;890;48.158;11.540;2022-11-20T01:37:29;4.13;;;3.73;;
1785;SDS011;890;48.158;11.540;2022-11-20T01:39:55;5.30;;;4.03;;
1785;SDS011;890;48.158;11.540;2022-11-20T01:42:21;4.03;;;3.63;;
1785;SDS011;890;48.158;11.540;2022-11-20T01:48:08;4.40;;;3.97;;
1785;SDS011;890;48.158;11.540;2022-11-20T01:50:34;3.67;;;3.37;;
1785;SDS011;890;48.158;11.540;2022-11-20T01:53:01;3.73;;;3.43;;
1785;SDS011;890;48.158;11.540;2022-11-20T01:55:33;4.00;;;3.60;;
1785;SDS011;890;48.158;11.540;2022-11-20T01:58:01;4.43;;;4.03;;
1785;SDS011;890;48.158;11.540;2022-11-20T02:00:28;4.50;;;3.83;;
1785;SDS011;890;48.158;11.540;2022-11-20T02:02:58;4.20;;;3.80;;
1785;SDS011;890;48.158;11.540;2022-11-20T02:05:31;4.30;;;3.90;;
1785;SDS011;890;48.158;11.540;2022-11-20T02:08:00;4.23;;;3.93;;
1785;SDS011;890;48.158;11.540;2022-11-20T02:10:29;4.27;;;3.87;;
1785;SDS011;890;48.158;11.540;2022-11-20T02:12:54;3.83;;;3.43;;
1785;SDS011;890;48.158;11.540;2022-11-20T02:15:39;4.43;;;4.03;;
1785;SDS011;890;48.158;11.540;2022-11-20T02:18:05;5.00;;;3.93;;
1785;SDS011;890;48.158;11.540;2022-11-20T02:20:32;4.03;;;3.73;;
1785;SDS011;890;48.158;11.540;2022-11-20T02:22:59;4.77;;;4.27;;
1785;SDS011;890;48.158;11.540;2022-11-20T02:25:30;4.30;;;3.90;;
1785;SDS011;890;48.158;11.540;2022-11-20T02:27:57;4.20;;;3.80;;
1785;SDS011;890;48.158;11.540;2022-11-20T02:30:23;4.57;;;4.17;;
1785;SDS011;890;48.158;11.540;2022-11-20T02:32:49;4.23;;;3.83;;
1785;SDS011;890;48.158;11.540;2022-11-20T02:37:43;4.60;;;4.07;;
1785;SDS011;890;48.158;11.540;2022-11-20T02:40:12;4.20;;;3.80;;
1785;SDS011;890;48.158;11.540;2022-11-20T02:42:38;4.53;;;4.10;;
1785;SDS011;890;48.158;11.540;2022-11-20T02:45:04;4.63;;;4.23;;
1785;SDS011;890;48.158;11.540;2022-11-20T02:47:30;4.50;;;4.10;;
1785;SDS011;890;48.158;11.540;2022-11-20T02:49:56;5.00;;;4.60;;
1785;SDS011;890;48.158;11.540;2022-11-20T02:52:22;4.23;;;3.83;;
1785;SDS011;890;48.158;11.540;2022-11-20T02:54:48;4.63;;;4.23;;
1785;SDS011;890;48.158;11.540;2022-11-20T02:57:14;5.40;;;4.10;;
1785;SDS011;890;48.158;11.540;2022-11-20T02:59:39;3.90;;;3.60;;
1785;SDS011;890;48.158;11.540;2022-11-20T03:02:05;4.70;;;4.27;;
1785;SDS011;890;48.158;11.540;2022-11-20T03:04:31;5.40;;;4.90;;
1785;SDS011;890;48.158;11.540;2022-11-20T03:06:56;4.50;;;4.10;;
1785;SDS011;890;48.158;11.540;2022-11-20T03:09:22;4.30;;;3.90;;
1785;SDS011;890;48.158;11.540;2022-11-20T03:11:47;4.03;;;3.60;;
1785;SDS011;890;48.158;11.540;2022-11-20T03:14:13;4.00;;;3.70;;
1785;SDS011;890;48.158;11.540;2022-11-20T03:16:39;4.70;;;4.10;;
1785;SDS011;890;48.158;11.540;2022-11-20T03:19:05;4.23;;;3.90;;
1785;SDS011;890;48.158;11.540;2022-11-20T03:21:32;4.67;;;3.83;;
1785;SDS011;890;48.158;11.540;2022-11-20T03:23:59;4.40;;;4.00;;
1785;SDS011;890;48.158;11.540;2022-11-20T03:26:25;4.63;;;4.20;;
1785;SDS011;890;48.158;11.540;2022-11-20T03:28:53;4.33;;;3.93;;
1785;SDS011;890;48.158;11.540;2022-11-20T03:31:24;3.87;;;3.57;;
1785;SDS011;890;48.158;11.540;2022-11-20T03:33:55;4.50;;;4.10;;
1785;SDS011;890;48.158;11.540;2022-11-20T03:36:21;4.67;;;4.27;;
1785;SDS011;890;48.158;11.540;2022-11-20T03:38:47;4.80;;;3.87;;
1785;SDS011;890;48.158;11.540;2022-11-20T03:41:21;4.00;;;3.60;;
1785;SDS011;890;48.158;11.540;2022-11-20T03:43:51;4.20;;;3.80;;
1785;SDS011;890;48.158;11.540;2022-11-20T03:46:19;4.37;;;3.97;;
1785;SDS011;890;48.158;11.540;2022-11-20T03:48:45;3.83;;;3.43;;
1785;SDS011;890;48.158;11.540;2022-11-20T03:51:12;3.93;;;3.63;;
1785;SDS011;890;48.158;11.540;2022-11-20T03:53:41;4.27;;;3.90;;
1785;SDS011;890;48.158;11.540;2022-11-20T03:56:08;4.70;;;4.20;;
1785;SDS011;890;48.158;11.540;2022-11-20T03:58:35;4.73;;;4.30;;
1785;SDS011;890;48.158;11.540;2022-11-20T04:01:09;4.60;;;4.00;;
1785;SDS011;890;48.158;11.540;2022-11-20T04:03:40;3.80;;;3.50;;
1785;SDS011;890;48.158;11.540;2022-11-20T04:08:37;4.43;;;4.03;;
1785;SDS011;890;48.158;11.540;2022-11-20T04:13:47;4.30;;;3.90;;
1785;SDS011;890;48.158;11.540;2022-11-20T04:16:14;4.27;;;3.87;;
1785;SDS011;890;48.158;11.540;2022-11-20T04:18:41;4.00;;;3.60;;
1785;SDS011;890;48.158;11.540;2022-11-20T04:21:06;4.07;;;3.47;;
1785;SDS011;890;48.158;11.540;2022-11-20T04:23:32;3.60;;;3.30;;
1785;SDS011;890;48.158;11.540;2022-11-20T04:26:02;4.20;;;3.80;;
1785;SDS011;890;48.158;11.540;2022-11-20T04:28:32;5.00;;;3.87;;
1785;SDS011;890;48.158;11.540;2022-11-20T04:31:05;4.80;;;4.30;;
1785;SDS011;890;48.158;11.540;2022-11-20T04:33:33;4.03;;;3.60;;
1785;SDS011;890;48.158;11.540;2022-11-20T04:36:01;4.17;;;3.73;;
1785;SDS011;890;48.158;11.540;2022-11-20T04:38:28;4.77;;;4.00;;
1785;SDS011;890;48.158;11.540;2022-11-20T04:41:00;4.10;;;3.80;;
1785;SDS011;890;48.158;11.540;2022-11-20T04:43:27;5.77;;;4.20;;
1785;SDS011;890;48.158;11.540;2022-11-20T04:45:54;4.70;;;4.30;;
1785;SDS011;890;48.158;11.540;2022-11-20T04:48:20;4.40;;;4.00;;
1785;SDS011;890;48.158;11.540;2022-11-20T04:50:46;4.10;;;3.80;;
1785;SDS011;890;48.158;11.540;2022-11-20T04:53:12;4.50;;;4.10;;
1785;SDS011;890;48.158;11.540;2022-11-20T04:55:37;4.50;;;3.40;;
1785;SDS011;890;48.158;11.540;2022-11-20T04:58:03;3.80;;;3.50;;
1785;SDS011;890;48.158;11.540;2022-11-20T05:00:29;4.60;;;4.20;;
1785;SDS011;890;48.158;11.540;2022-11-20T05:02:54;5.00;;;3.90;;
1785;SDS011;890;48.158;11.540;2022-11-20T05:05:20;4.07;;;3.67;;
1785;SDS011;890;48.158;11.540;2022-11-20T05:07:45;4.47;;;3.70;;
1785;SDS011;890;48.158;11.540;2022-11-20T05:10:11;5.33;;;4.43;;
1785;SDS011;890;48.158;11.540;2022-11-20T05:12:36;4.30;;;3.90;;
1785;SDS011;890;48.158;11.540;2022-11-20T05:15:02;3.83;;;3.53;;
1785;SDS011;890;48.158;11.540;2022-11-20T05:17:28;4.60;;;4.20;;
1785;SDS011;890;48.158;11.540;2022-11-20T05:19:53;4.40;;;4.00;;
1785;SDS011;890;48.158;11.540;2022-11-20T05:22:19;4.33;;;3.93;;
1785;SDS011;890;48.158;11.540;2022-11-20T05:24:45;4.40;;;4.00;;
1785;SDS011;890;48.158;11.540;2022-11-20T05:27:10;4.67;;;4.27;;
1785;SDS011;890;48.158;11.540;2022-11-20T05:29:36;5.23;;;4.73;;
1785;SDS011;890;48.158;11.540;2022-11-20T05:32:01;4.67;;;4.27;;
1785;SDS011;890;48.158;11.540;2022-11-20T05:34:27;5.30;;;4.80;;
1785;SDS011;890;48.158;11.540;2022-11-20T05:36:52;5.97;;;4.77;;
1785;SDS011;890;48.158;11.540;2022-11-20T05:39:18;5.50;;;4.23;;
1785;SDS011;890;48.158;11.540;2022-11-20T05:41:43;4.30;;;3.90;;
1785;SDS011;890;48.158;11.540;2022-11-20T05:44:10;4.67;;;4.17;;
1785;SDS011;890;48.158;11.540;2022-11-20T05:46:36;4.57;;;4.17;;
1785;SDS011;890;48.158;11.540;2022-11-20T05:49:01;4.10;;;3.73;;
1785;SDS011;890;48.158;11.540;2022-11-20T05:51:27;4.40;;;4.00;;
1785;SDS011;890;48.158;11.540;2022-11-20T05:53:53;4.23;;;3.83;;
1785;SDS011;890;48.158;11.540;2022-11-20T05:56:21;4.80;;;4.40;;
1785;SDS011;890;48.158;11.540;2022-11-20T05:58:47;5.30;;;4.80;;
1785;SDS011;890;48.158;11.540;2022-11-20T06:03:43;4.50;;;4.20;;
1785;SDS011;890;48.158;11.540;2022-11-20T06:06:12;4.60;;;4.13;;
1785;SDS011;890;48.158;11.540;2022-11-20T06:08:39;4.17;;;3.87;;
1785;SDS011;890;48.158;11.540;2022-11-20T06:11:05;4.77;;;4.37;;
1785;SDS011;890;48.158;11.540;2022-11-20T06:13:33;4.70;;;4.30;;
1785;SDS011;890;48.158;11.540;2022-11-20T06:15:58;4.57;;;4.17;;
1785;SDS011;890;48.158;11.540;2022-11-20T06:18:25;4.60;;;4.20;;
1785;SDS011;890;48.158;11.540;2022-11-20T06:21:00;4.50;;;4.10;;
1785;SDS011;890;48.158;11.540;2022-11-20T06:23:28;4.47;;;4.10;;
1785;SDS011;890;48.158;11.540;2022-11-20T06:25:54;4.17;;;3.87;;
1785;SDS011;890;48.158;11.540;2022-11-20T06:28:20;4.27;;;3.80;;
1785;SDS011;890;48.158;11.540;2022-11-20T06:30:45;4.10;;;3.80;;
1785;SDS011;890;48.158;11.540;2022-11-20T06:33:11;3.80;;;3.40;;
1785;SDS011;890;48.158;11.540;2022-11-20T06:35:36;3.47;;;3.20;;
1785;SDS011;890;48.158;11.540;2022-11-20T06:38:02;4.40;;;3.77;;
1785;SDS011;890;48.158;11.540;2022-11-20T06:40:27;3.93;;;3.50;;
1785;SDS011;890;48.158;11.540;2022-11-20T06:42:53;4.00;;;3.70;;
1785;SDS011;890;48.158;11.540;2022-11-20T06:45:20;4.23;;;3.83;;
1785;SDS011;890;48.158;11.540;2022-11-20T06:47:46;3.57;;;3.27;;
1785;SDS011;890;48.158;11.540;2022-11-20T06:50:11;3.90;;;3.40;;
1785;SDS011;890;48.158;11.540;2022-11-20T06:52:38;3.87;;;3.37;;
1785;SDS011;890;48.158;11.540;2022-11-20T06:55:03;3.43;;;3.13;;
1785;SDS011;890;48.158;11.540;2022-11-20T06:57:29;3.43;;;3.13;;
1785;SDS011;890;48.158;11.540;2022-11-20T06:59:55;3.17;;;2.87;;
1785;SDS011;890;48.158;11.540;2022-11-20T07:02:20;3.80;;;3.50;;
1785;SDS011;890;48.158;11.540;2022-11-20T07:04:46;3.83;;;3.50;;
1785;SDS011;890;48.158;11.540;2022-11-20T07:07:11;3.50;;;3.20;;
1785;SDS011;890;48.158;11.540;2022-11-20T07:09:37;3.33;;;3.03;;
1785;SDS011;890;48.158;11.540;2022-11-20T07:12:02;3.37;;;3.10;;
1785;SDS011;890;48.158;11.540;2022-11-20T07:14:28;3.97;;;3.17;;
1785;SDS011;890;48.158;11.540;2022-11-20T07:16:54;3.83;;;3.43;;
1785;SDS011;890;48.158;11.540;2022-11-20T07:19:20;4.33;;;3.50;;
1785;SDS011;890;48.158;11.540;2022-11-20T07:21:45;3.80;;;3.50;;
1785;SDS011;890;48.158;11.540;2022-11-20T07:24:11;3.30;;;3.00;;
1785;SDS011;890;48.158;11.540;2022-11-20T07:26:36;3.30;;;3.10;;
1785;SDS011;890;48.158;11.540;2022-11-20T07:29:02;3.57;;;3.27;;
1785;SDS011;890;48.158;11.540;2022-11-20T07:31:28;3.20;;;2.90;;
1785;SDS011;890;48.158;11.540;2022-11-20T07:33:54;3.20;;;2.90;;
1785;SDS011;890;48.158;11.540;2022-11-20T07:36:19;3.00;;;2.70;;
1785;SDS011;890;48.158;11.540;2022-11-20T07:38:45;4.20;;;2.80;;
1785;SDS011;890;48.158;11.540;2022-11-20T07:41:10;3.03;;;2.70;;
1785;SDS011;890;48.158;11.540;2022-11-20T07:43:36;3.77;;;3.20;;
1785;SDS011;890;48.158;11.540;2022-11-20T07:46:02;3.50;;;3.20;;
1785;SDS011;890;48.158;11.540;2022-11-20T07:48:28;3.10;;;2.80;;
1785;SDS011;890;48.158;11.540;2022-11-20T07:50:55;3.77;;;3.47;;
1785;SDS011;890;48.158;11.540;2022-11-20T07:53:21;3.80;;;3.50;;
1785;SDS011;890;48.158;11.540;2022-11-20T07:55:47;3.90;;;3.60;;
1785;SDS011;890;48.158;11.540;2022-11-20T07:58:13;5.93;;;3.83;;
1785;SDS011;890;48.158;11.540;2022-11-20T08:00:41;5.03;;;3.47;;
1785;SDS011;890;48.158;11.540;2022-11-20T08:03:07;4.30;;;4.00;;
1785;SDS011;890;48.158;11.540;2022-11-20T08:05:32;4.07;;;3.67;;
1785;SDS011;890;48.158;11.540;2022-11-20T08:07:58;4.10;;;3.70;;
1785;SDS011;890;48.158;11.540;2022-11-20T08:10:24;3.50;;;3.20;;
1785;SDS011;890;48.158;11.540;2022-11-20T08:12:50;4.13;;;3.73;;
1785;SDS011;890;48.158;11.540;2022-11-20T08:15:36;4.20;;;3.80;;
1785;SDS011;890;48.158;11.540;2022-11-20T08:18:03;4.83;;;4.43;;
1785;SDS011;890;48.158;11.540;2022-11-20T08:20:36;3.90;;;3.47;;
1785;SDS011;890;48.158;11.540;2022-11-20T08:23:06;3.87;;;3.57;;
1785;SDS011;890;48.158;11.540;2022-11-20T08:25:36;3.60;;;3.30;;
1785;SDS011;890;48.158;11.540;2022-11-20T08:28:04;3.57;;;3.27;;
1785;SDS011;890;48.158;11.540;2022-11-20T08:30:31;3.50;;;3.20;;
1785;SDS011;890;48.158;11.540;2022-11-20T08:33:04;4.27;;;3.83;;
1785;SDS011;890;48.158;11.540;2022-11-20T08:35:33;3.60;;;3.30;;
1785;SDS011;890;48.158;11.540;2022-11-20T08:38:00;3.63;;;3.33;;
1785;SDS011;890;48.158;11.540;2022-11-20T08:40:26;3.70;;;3.23;;
1785;SDS011;890;48.158;11.540;2022-11-20T08:42:52;3.73;;;3.40;;
1785;SDS011;890;48.158;11.540;2022-11-20T08:45:18;4.67;;;3.80;;
1785;SDS011;890;48.158;11.540;2022-11-20T08:47:44;3.57;;;3.27;;
1785;SDS011;890;48.158;11.540;2022-11-20T08:50:11;4.00;;;3.60;;
1785;SDS011;890;48.158;11.540;2022-11-20T08:52:38;3.27;;;2.90;;
1785;SDS011;890;48.158;11.540;2022-11-20T08:55:03;3.50;;;3.20;;
1785;SDS011;890;48.158;11.540;2022-11-20T08:57:33;3.83;;;3.43;;
1785;SDS011;890;48.158;11.540;2022-11-20T08:59:59;3.73;;;3.40;;
1785;SDS011;890;48.158;11.540;2022-11-20T09:02:25;4.63;;;3.63;;
1785;SDS011;890;48.158;11.540;2022-11-20T09:04:51;4.80;;;3.50;;
1785;SDS011;890;48.158;11.540;2022-11-20T09:07:18;3.20;;;2.87;;
1785;SDS011;890;48.158;11.540;2022-11-20T09:09:44;3.23;;;2.93;;
1785;SDS011;890;48.158;11.540;2022-11-20T09:12:09;3.90;;;3.60;;
1785;SDS011;890;48.158;11.540;2022-11-20T09:14:35;3.63;;;3.33;;
1785;SDS011;890;48.158;11.540;2022-11-20T09:17:01;4.60;;;2.97;;
1785;SDS011;890;48.158;11.540;2022-11-20T09:19:26;4.13;;;3.10;;
1785;SDS011;890;48.158;11.540;2022-11-20T09:21:52;3.30;;;2.93;;
1785;SDS011;890;48.158;11.540;2022-11-20T09:24:17;3.70;;;3.40;;
1785;SDS011;890;48.158;11.540;2022-11-20T09:26:44;2.93;;;2.73;;
1785;SDS011;890;48.158;11.540;2022-11-20T09:29:09;3.60;;;3.00;;
1785;SDS011;890;48.158;11.540;2022-11-20T09:31:35;2.70;;;2.50;;
1785;SDS011;890;48.158;11.540;2022-11-20T09:34:01;2.93;;;2.63;;
1785;SDS011;890;48.158;11.540;2022-11-20T09:36:27;3.00;;;2.63;;
1785;SDS011;890;48.158;11.540;2022-11-20T09:38:53;2.40;;;2.27;;
1785;SDS011;890;48.158;11.540;2022-11-20T09:44:28;3.47;;;2.67;;
1785;SDS011;890;48.158;11.540;2022-11-20T09:47:07;2.90;;;2.50;;
1785;SDS011;890;48.158;11.540;2022-11-20T09:49:45;2.43;;;2.10;;
1785;SDS011;890;48.158;11.540;2022-11-20T09:52:20;3.10;;;2.30;;
1785;SDS011;890;48.158;11.540;2022-11-20T09:54:57;3.30;;;2.83;;
1785;SDS011;890;48.158;11.540;2022-11-20T09:57:29;3.10;;;2.70;;
1785;SDS011;890;48.158;11.540;2022-11-20T10:00:00;2.97;;;2.60;;
1785;SDS011;890;48.158;11.540;2022-11-20T10:03:16;2.10;;;1.90;;
1785;SDS011;890;48.158;11.540;2022-11-20T10:10:47;2.30;;;2.10;;
1785;SDS011;890;48.158;11.540;2022-11-20T10:16:07;2.30;;;1.90;;
1785;SDS011;890;48.158;11.540;2022-11-20T10:19:11;2.10;;;1.90;;
1785;SDS011;890;48.158;11.540;2022-11-20T10:30:37;2.60;;;2.23;;
1785;SDS011;890;48.158;11.540;2022-11-20T10:33:15;2.70;;;2.43;;
1785;SDS011;890;48.158;11.540;2022-11-20T10:35:48;2.40;;;2.20;;
1785;SDS011;890;48.158;11.540;2022-11-20T10:38:22;2.73;;;2.27;;
1785;SDS011;890;48.158;11.540;2022-11-20T10:40:57;2.10;;;1.90;;
1785;SDS011;890;48.158;11.540;2022-11-20T10:43:44;4.00;;;2.40;;
1785;SDS011;890;48.158;11.540;2022-11-20T10:46:15;2.90;;;2.63;;
1785;SDS011;890;48.158;11.540;2022-11-20T10:48:45;4.20;;;2.40;;
1785;SDS011;890;48.158;11.540;2022-11-20T10:57:18;2.40;;;2.20;;
1785;SDS011;890;48.158;11.540;2022-11-20T11:00:11;3.17;;;2.30;;
1785;SDS011;890;48.158;11.540;2022-11-20T11:02:43;2.40;;;2.20;;
1785;SDS011;890;48.158;11.540;2022-11-20T11:07:45;3.33;;;2.37;;
1785;SDS011;890;48.158;11.540;2022-11-20T11:13:21;3.03;;;2.73;;
1785;SDS011;890;48.158;11.540;2022-11-20T11:15:48;6.67;;;6.00;;
1785;SDS011;890;48.158;11.540;2022-11-20T11:18:23;2.40;;;2.20;;
1785;SDS011;890;48.158;11.540;2022-11-20T11:20:50;2.30;;;2.10;;
1785;SDS011;890;48.158;11.540;2022-11-20T11:26:00;2.83;;;2.60;;
1785;SDS011;890;48.158;11.540;2022-11-20T11:28:27;2.50;;;2.30;;
1785;SDS011;890;48.158;11.540;2022-11-20T11:30:53;2.27;;;2.07;;
1785;SDS011;890;48.158;11.540;2022-11-20T11:33:25;2.27;;;2.07;;
1785;SDS011;890;48.158;11.540;2022-11-20T11:35:53;1.90;;;1.80;;
1785;SDS011;890;48.158;11.540;2022-11-20T11:38:39;2.10;;;1.90;;
1785;SDS011;890;48.158;11.540;2022-11-20T11:41:09;1.97;;;1.77;;
1785;SDS011;890;48.158;11.540;2022-11-20T11:43:49;1.80;;;1.70;;
1785;SDS011;890;48.158;11.540;2022-11-20T11:46:39;2.10;;;1.90;;
1785;SDS011;890;48.158;11.540;2022-11-20T11:49:16;2.40;;;2.20;;
1785;SDS011;890;48.158;11.540;2022-11-20T11:54:37;2.20;;;2.00;;
1785;SDS011;890;48.158;11.540;2022-11-20T11:57:15;2.30;;;1.73;;
1785;SDS011;890;48.158;11.540;2022-11-20T11:59:54;2.53;;;2.33;;
1785;SDS011;890;48.158;11.540;2022-11-20T12:07:46;2.27;;;2.07;;
1785;SDS011;890;48.158;11.540;2022-11-20T12:13:42;2.27;;;1.97;;
1785;SDS011;890;48.158;11.540;2022-11-20T12:16:29;3.63;;;2.77;;
1785;SDS011;890;48.158;11.540;2022-11-20T12:18:59;2.77;;;2.57;;
1785;SDS011;890;48.158;11.540;2022-11-20T12:21:34;2.27;;;2.07;;
1785;SDS011;890;48.158;11.540;2022-11-20T12:24:52;2.43;;;2.23;;
1785;SDS011;890;48.158;11.540;2022-11-20T12:30:01;2.80;;;2.20;;
1785;SDS011;890;48.158;11.540;2022-11-20T12:32:39;2.93;;;2.63;;
1785;SDS011;890;48.158;11.540;2022-11-20T12:47:16;2.27;;;2.07;;
1785;SDS011;890;48.158;11.540;2022-11-20T12:49:52;2.47;;;2.27;;
1785;SDS011;890;48.158;11.540;2022-11-20T12:57:55;3.20;;;2.17;;
1785;SDS011;890;48.158;11.540;2022-11-20T13:00:34;2.47;;;2.27;;
1785;SDS011;890;48.158;11.540;2022-11-20T13:06:15;2.30;;;2.10;;
1785;SDS011;890;48.158;11.540;2022-11-20T13:08:54;2.57;;;2.37;;
1785;SDS011;890;48.158;11.540;2022-11-20T13:11:41;2.60;;;2.40;;
1785;SDS011;890;48.158;11.540;2022-11-20T13:14:40;4.50;;;2.70;;
1785;SDS011;890;48.158;11.540;2022-11-20T13:17:15;2.63;;;2.43;;
1785;SDS011;890;48.158;11.540;2022-11-20T13:19:56;2.67;;;2.30;;
1785;SDS011;890;48.158;11.540;2022-11-20T13:22:57;2.63;;;2.43;;
1785;SDS011;890;48.158;11.540;2022-11-20T13:25:22;3.00;;;2.80;;
1785;SDS011;890;48.158;11.540;2022-11-20T13:27:56;3.30;;;3.03;;
1785;SDS011;890;48.158;11.540;2022-11-20T13:30:24;2.67;;;2.47;;
1785;SDS011;890;48.158;11.540;2022-11-20T13:32:55;3.40;;;3.10;;
1785;SDS011;890;48.158;11.540;2022-11-20T13:35:34;3.50;;;2.83;;
1785;SDS011;890;48.158;11.540;2022-11-20T13:38:00;3.60;;;2.80;;
1785;SDS011;890;48.158;11.540;2022-11-20T13:40:37;3.40;;;2.67;;
1785;SDS011;890;48.158;11.540;2022-11-20T13:43:21;3.53;;;3.00;;
1785;SDS011;890;48.158;11.540;2022-11-20T13:46:09;3.40;;;3.10;;
1785;SDS011;890;48.158;11.540;2022-11-20T13:48:39;3.60;;;3.30;;
1785;SDS011;890;48.158;11.540;2022-11-20T13:56:51;3.67;;;3.37;;
1785;SDS011;890;48.158;11.540;2022-11-20T14:02:28;3.00;;;2.73;;
1785;SDS011;890;48.158;11.540;2022-11-20T14:04:56;3.60;;;3.10;;
1785;SDS011;890;48.158;11.540;2022-11-20T14:07:25;3.60;;;3.30;;
1785;SDS011;890;48.158;11.540;2022-11-20T14:10:17;3.27;;;2.97;;
1785;SDS011;890;48.158;11.540;2022-11-20T14:12:49;3.80;;;3.03;;
1785;SDS011;890;48.158;11.540;2022-11-20T14:17:55;2.90;;;2.70;;
1785;SDS011;890;48.158;11.540;2022-11-20T14:20:23;4.43;;;3.23;;
1785;SDS011;890;48.158;11.540;2022-11-20T14:22:53;3.27;;;2.80;;
1785;SDS011;890;48.158;11.540;2022-11-20T14:31:00;2.87;;;2.50;;
1785;SDS011;890;48.158;11.540;2022-11-20T14:33:26;2.93;;;2.70;;
1785;SDS011;890;48.158;11.540;2022-11-20T14:35:53;2.90;;;2.70;;
1785;SDS011;890;48.158;11.540;2022-11-20T14:38:27;2.80;;;2.60;;
1785;SDS011;890;48.158;11.540;2022-11-20T14:40:54;2.50;;;2.30;;
1785;SDS011;890;48.158;11.540;2022-11-20T14:43:30;2.73;;;2.53;;
1785;SDS011;890;48.158;11.540;2022-11-20T14:45:58;2.40;;;2.20;;
1785;SDS011;890;48.158;11.540;2022-11-20T14:48:47;2.20;;;2.00;;
1785;SDS011;890;48.158;11.540;2022-11-20T14:56:39;2.13;;;1.90;;
1785;SDS011;890;48.158;11.540;2022-11-20T14:59:05;2.07;;;1.93;;
1785;SDS011;890;48.158;11.540;2022-11-20T15:01:32;2.20;;;1.80;;
1785;SDS011;890;48.158;11.540;2022-11-20T15:04:05;2.80;;;1.90;;
1785;SDS011;890;48.158;11.540;2022-11-20T15:06:34;2.60;;;2.17;;
1785;SDS011;890;48.158;11.540;2022-11-20T15:09:02;1.87;;;1.73;;
1785;SDS011;890;48.158;11.540;2022-11-20T15:11:29;1.73;;;1.63;;
1785;SDS011;890;48.158;11.540;2022-11-20T15:13:57;2.07;;;1.80;;
1785;SDS011;890;48.158;11.540;2022-11-20T15:16:27;2.23;;;1.90;;
1785;SDS011;890;48.158;11.540;2022-11-20T15:18:53;2.33;;;1.97;;
1785;SDS011;890;48.158;11.540;2022-11-20T15:21:19;2.73;;;1.67;;
1785;SDS011;890;48.158;11.540;2022-11-20T15:23:48;3.73;;;2.13;;
1785;SDS011;890;48.158;11.540;2022-11-20T15:26:14;2.47;;;2.07;;
1785;SDS011;890;48.158;11.540;2022-11-20T15:28:59;2.63;;;2.43;;
1785;SDS011;890;48.158;11.540;2022-11-20T15:31:25;2.30;;;2.10;;
1785;SDS011;890;48.158;11.540;2022-11-20T15:33:50;2.00;;;1.80;;
1785;SDS011;890;48.158;11.540;2022-11-20T15:36:16;2.60;;;2.10;;
1785;SDS011;890;48.158;11.540;2022-11-20T15:38:42;2.20;;;2.00;;
1785;SDS011;890;48.158;11.540;2022-11-20T15:41:08;2.20;;;2.00;;
1785;SDS011;890;48.158;11.540;2022-11-20T15:43:34;2.93;;;1.90;;
1785;SDS011;890;48.158;11.540;2022-11-20T15:46:00;2.80;;;2.30;;
1785;SDS011;890;48.158;11.540;2022-11-20T15:48:30;2.63;;;2.10;;
1785;SDS011;890;48.158;11.540;2022-11-20T15:51:01;2.90;;;2.70;;
1785;SDS011;890;48.158;11.540;2022-11-20T15:53:38;3.07;;;2.27;;
1785;SDS011;890;48.158;11.540;2022-11-20T15:56:05;2.77;;;2.57;;
1785;SDS011;890;48.158;11.540;2022-11-20T15:58:31;2.50;;;2.10;;
1785;SDS011;890;48.158;11.540;2022-11-20T16:00:59;2.93;;;2.30;;
1785;SDS011;890;48.158;11.540;2022-11-20T16:03:24;2.00;;;1.90;;
1785;SDS011;890;48.158;11.540;2022-11-20T16:05:50;2.80;;;2.60;;
1785;SDS011;890;48.158;11.540;2022-11-20T16:08:15;6.90;;;5.93;;
1785;SDS011;890;48.158;11.540;2022-11-20T16:10:41;5.20;;;3.63;;
1785;SDS011;890;48.158;11.540;2022-11-20T16:13:14;6.73;;;3.83;;
1785;SDS011;890;48.158;11.540;2022-11-20T16:16:01;2.93;;;2.63;;
1785;SDS011;890;48.158;11.540;2022-11-20T16:18:30;3.40;;;3.10;;
1785;SDS011;890;48.158;11.540;2022-11-20T16:20:56;4.10;;;3.73;;
1785;SDS011;890;48.158;11.540;2022-11-20T16:23:22;5.30;;;4.03;;
1785;SDS011;890;48.158;11.540;2022-11-20T16:25:48;5.00;;;4.03;;
1785;SDS011;890;48.158;11.540;2022-11-20T16:28:15;5.10;;;4.60;;
1785;SDS011;890;48.158;11.540;2022-11-20T16:30:41;4.80;;;3.90;;
1785;SDS011;890;48.158;11.540;2022-11-20T16:33:16;4.30;;;3.90;;
1785;SDS011;890;48.158;11.540;2022-11-20T16:35:42;5.00;;;4.50;;
1785;SDS011;890;48.158;11.540;2022-11-20T16:38:08;6.67;;;5.43;;
1785;SDS011;890;48.158;11.540;2022-11-20T16:40:34;5.20;;;4.70;;
1785;SDS011;890;48.158;11.540;2022-11-20T16:43:10;7.10;;;5.60;;
1785;SDS011;890;48.158;11.540;2022-11-20T16:45:42;7.73;;;6.53;;
1785;SDS011;890;48.158;11.540;2022-11-20T16:48:15;9.87;;;8.50;;
1785;SDS011;890;48.158;11.540;2022-11-20T16:50:48;5.93;;;5.23;;
1785;SDS011;890;48.158;11.540;2022-11-20T16:53:19;8.83;;;5.17;;
1785;SDS011;890;48.158;11.540;2022-11-20T16:55:45;4.10;;;3.80;;
1785;SDS011;890;48.158;11.540;2022-11-20T16:58:12;4.83;;;4.43;;
1785;SDS011;890;48.158;11.540;2022-11-20T17:00:38;4.90;;;4.50;;
1785;SDS011;890;48.158;11.540;2022-11-20T17:03:05;5.10;;;4.63;;
1785;SDS011;890;48.158;11.540;2022-11-20T17:05:31;5.50;;;5.00;;
1785;SDS011;890;48.158;11.540;2022-11-20T17:07:58;5.40;;;4.90;;
1785;SDS011;890;48.158;11.540;2022-11-20T17:10:24;5.70;;;5.10;;
1785;SDS011;890;48.158;11.540;2022-11-20T17:12:50;6.90;;;6.20;;